sensor_id;sensor_type;location;lat;lon;timestamp;temperature;humidity
17381;DHT22;8808;52.478;13.378;2023-07-13T00:01:45;20.30;99.90
17381;DHT22;8808;52.478;13.378;2023-07-13T00:04:15;20.10;99.90
17381;DHT22;8808;52.478;13.378;2023-07-13T00:06:43;20.20;99.90
17381;DHT22;8808;52.478;13.378;2023-07-13T00:09:11;20.40;99.90
17381;DHT22;8808;52.478;13.378;2023-07-13T00:11:39;20.60;99.90
17381;DHT22;8808;52.478;13.378;2023-07-13T00:14:06;20.60;99.90
17381;DHT22;8808;52.478;13.378;2023-07-13T00:16:33;20.60;99.90
17381;DHT22;8808;52.478;13.378;2023-07-13T00:19:00;20.40;99.90
17381;DHT22;8808;52.478;13.378;2023-07-13T00:21:28;20.40;99.90
17381;DHT22;8808;52.478;13.378;2023-07-13T00:23:55;20.40;99.90
17381;DHT22;8808;52.478;13.378;2023-07-13T00:26:23;20.50;99.90
17381;DHT22;8808;52.478;13.378;2023-07-13T00:28:50;20.40;99.90
17381;DHT22;8808;52.478;13.378;2023-07-13T00:31:17;20.30;99.90
17381;DHT22;8808;52.478;13.378;2023-07-13T00:33:44;20.30;99.90
17381;DHT22;8808;52.478;13.378;2023-07-13T00:36:11;20.30;99.90
17381;DHT22;8808;52.478;13.378;2023-07-13T00:38:38;20.20;99.90
17381;DHT22;8808;52.478;13.378;2023-07-13T00:41:05;20.10;99.90
17381;DHT22;8808;52.478;13.378;2023-07-13T00:43:33;20.10;99.90
17381;DHT22;8808;52.478;13.378;2023-07-13T00:46:25;20.00;99.90
17381;DHT22;8808;52.478;13.378;2023-07-13T00:48:54;19.90;99.90
17381;DHT22;8808;52.478;13.378;2023-07-13T00:51:26;19.70;99.90
17381;DHT22;8808;52.478;13.378;2023-07-13T00:53:59;19.70;99.90
17381;DHT22;8808;52.478;13.378;2023-07-13T00:56:27;19.60;99.90
17381;DHT22;8808;52.478;13.378;2023-07-13T00:58:57;19.60;99.90
17381;DHT22;8808;52.478;13.378;2023-07-13T01:04:01;19.30;99.90
17381;DHT22;8808;52.478;13.378;2023-07-13T01:06:29;19.30;99.90
17381;DHT22;8808;52.478;13.378;2023-07-13T01:08:56;19.40;99.90
17381;DHT22;8808;52.478;13.378;2023-07-13T01:11:24;19.40;99.90
17381;DHT22;8808;52.478;13.378;2023-07-13T01:13:51;19.20;99.90
17381;DHT22;8808;52.478;13.378;2023-07-13T01:16:24;19.10;99.90
17381;DHT22;8808;52.478;13.378;2023-07-13T01:18:52;19.10;99.90
17381;DHT22;8808;52.478;13.378;2023-07-13T01:21:20;19.10;99.90
17381;DHT22;8808;52.478;13.378;2023-07-13T01:23:47;19.10;99.90
17381;DHT22;8808;52.478;13.378;2023-07-13T01:26:14;19.10;99.90
17381;DHT22;8808;52.478;13.378;2023-07-13T01:28:41;18.90;99.90
17381;DHT22;8808;52.478;13.378;2023-07-13T01:31:08;18.90;99.90
17381;DHT22;8808;52.478;13.378;2023-07-13T01:33:37;18.90;99.90
17381;DHT22;8808;52.478;13.378;2023-07-13T01:36:05;19.00;99.90
17381;DHT22;8808;52.478;13.378;2023-07-13T01:38:34;18.80;99.90
17381;DHT22;8808;52.478;13.378;2023-07-13T01:41:02;18.70;99.90
17381;DHT22;8808;52.478;13.378;2023-07-13T01:43:29;18.70;99.90
17381;DHT22;8808;52.478;13.378;2023-07-13T01:45:56;18.80;99.90
17381;DHT22;8808;52.478;13.378;2023-07-13T01:48:23;18.80;99.90
17381;DHT22;8808;52.478;13.378;2023-07-13T01:50:50;18.90;99.90
17381;DHT22;8808;52.478;13.378;2023-07-13T01:53:17;18.80;99.90
17381;DHT22;8808;52.478;13.378;2023-07-13T01:55:45;18.60;99.90
17381;DHT22;8808;52.478;13.378;2023-07-13T01:58:12;18.70;99.90
17381;DHT22;8808;52.478;13.378;2023-07-13T02:00:39;18.80;99.90
17381;DHT22;8808;52.478;13.378;2023-07-13T02:03:06;18.80;99.90
17381;DHT22;8808;52.478;13.378;2023-07-13T02:05:33;19.00;99.90
17381;DHT22;8808;52.478;13.378;2023-07-13T02:08:00;18.90;99.90
17381;DHT22;8808;52.478;13.378;2023-07-13T02:10:27;18.70;99.90
17381;DHT22;8808;52.478;13.378;2023-07-13T02:12:56;18.80;99.90
17381;DHT22;8808;52.478;13.378;2023-07-13T02:15:23;18.60;99.90
17381;DHT22;8808;52.478;13.378;2023-07-13T02:17:50;18.50;99.90
17381;DHT22;8808;52.478;13.378;2023-07-13T02:20:17;18.40;99.90
17381;DHT22;8808;52.478;13.378;2023-07-13T02:22:44;18.50;99.90
17381;DHT22;8808;52.478;13.378;2023-07-13T02:25:11;18.40;99.90
17381;DHT22;8808;52.478;13.378;2023-07-13T02:27:38;18.30;99.90
17381;DHT22;8808;52.478;13.378;2023-07-13T02:30:08;18.30;99.90
17381;DHT22;8808;52.478;13.378;2023-07-13T02:32:35;18.30;99.90
17381;DHT22;8808;52.478;13.378;2023-07-13T02:35:02;18.10;99.90
17381;DHT22;8808;52.478;13.378;2023-07-13T02:37:29;18.20;99.90
17381;DHT22;8808;52.478;13.378;2023-07-13T02:39:56;18.20;99.90
17381;DHT22;8808;52.478;13.378;2023-07-13T02:42:23;18.20;99.90
17381;DHT22;8808;52.478;13.378;2023-07-13T02:44:50;18.20;99.90
17381;DHT22;8808;52.478;13.378;2023-07-13T02:47:19;18.00;99.90
17381;DHT22;8808;52.478;13.378;2023-07-13T02:49:46;17.90;99.90
17381;DHT22;8808;52.478;13.378;2023-07-13T02:52:13;17.90;99.90
17381;DHT22;8808;52.478;13.378;2023-07-13T02:54:40;17.90;99.90
17381;DHT22;8808;52.478;13.378;2023-07-13T02:57:07;17.80;99.90
17381;DHT22;8808;52.478;13.378;2023-07-13T02:59:34;18.00;99.90
17381;DHT22;8808;52.478;13.378;2023-07-13T03:02:01;18.00;99.90
17381;DHT22;8808;52.478;13.378;2023-07-13T03:04:29;17.90;99.90
17381;DHT22;8808;52.478;13.378;2023-07-13T03:06:56;17.90;99.90
17381;DHT22;8808;52.478;13.378;2023-07-13T03:09:24;17.80;99.90
17381;DHT22;8808;52.478;13.378;2023-07-13T03:11:52;17.70;99.90
17381;DHT22;8808;52.478;13.378;2023-07-13T03:14:20;17.70;99.90
17381;DHT22;8808;52.478;13.378;2023-07-13T03:16:47;17.80;99.90
17381;DHT22;8808;52.478;13.378;2023-07-13T03:19:14;17.90;99.90
17381;DHT22;8808;52.478;13.378;2023-07-13T03:21:42;17.90;99.90
17381;DHT22;8808;52.478;13.378;2023-07-13T03:24:09;18.00;99.90
17381;DHT22;8808;52.478;13.378;2023-07-13T03:26:36;18.10;99.90
17381;DHT22;8808;52.478;13.378;2023-07-13T03:29:03;18.20;99.90
17381;DHT22;8808;52.478;13.378;2023-07-13T03:31:34;18.20;99.90
17381;DHT22;8808;52.478;13.378;2023-07-13T03:34:02;18.20;99.90
17381;DHT22;8808;52.478;13.378;2023-07-13T03:36:31;18.20;99.90
17381;DHT22;8808;52.478;13.378;2023-07-13T03:39:01;18.00;99.90
17381;DHT22;8808;52.478;13.378;2023-07-13T03:41:29;18.10;99.90
17381;DHT22;8808;52.478;13.378;2023-07-13T03:43:57;18.10;99.90
17381;DHT22;8808;52.478;13.378;2023-07-13T03:46:24;18.20;99.90
17381;DHT22;8808;52.478;13.378;2023-07-13T03:48:52;18.40;99.90
17381;DHT22;8808;52.478;13.378;2023-07-13T03:51:19;18.50;99.90
17381;DHT22;8808;52.478;13.378;2023-07-13T03:53:47;18.50;99.90
17381;DHT22;8808;52.478;13.378;2023-07-13T03:56:17;18.50;99.90
17381;DHT22;8808;52.478;13.378;2023-07-13T03:58:46;18.50;99.90
17381;DHT22;8808;52.478;13.378;2023-07-13T04:01:15;18.60;99.90
17381;DHT22;8808;52.478;13.378;2023-07-13T04:03:42;18.80;99.90
17381;DHT22;8808;52.478;13.378;2023-07-13T04:06:14;18.90;99.90
17381;DHT22;8808;52.478;13.378;2023-07-13T04:08:47;19.10;99.90
17381;DHT22;8808;52.478;13.378;2023-07-13T04:11:16;19.20;99.90
17381;DHT22;8808;52.478;13.378;2023-07-13T04:13:44;19.30;99.90
17381;DHT22;8808;52.478;13.378;2023-07-13T04:16:12;19.60;99.90
17381;DHT22;8808;52.478;13.378;2023-07-13T04:18:39;19.50;99.90
17381;DHT22;8808;52.478;13.378;2023-07-13T04:21:07;19.40;99.90
17381;DHT22;8808;52.478;13.378;2023-07-13T04:23:34;19.40;99.90
17381;DHT22;8808;52.478;13.378;2023-07-13T04:26:02;19.70;99.90
17381;DHT22;8808;52.478;13.378;2023-07-13T04:28:30;19.50;99.90
17381;DHT22;8808;52.478;13.378;2023-07-13T04:30:57;19.50;99.90
17381;DHT22;8808;52.478;13.378;2023-07-13T04:33:26;19.60;99.90
17381;DHT22;8808;52.478;13.378;2023-07-13T04:35:55;19.70;99.90
17381;DHT22;8808;52.478;13.378;2023-07-13T04:38:23;19.80;99.90
17381;DHT22;8808;52.478;13.378;2023-07-13T04:40:51;19.80;99.90
17381;DHT22;8808;52.478;13.378;2023-07-13T04:43:18;19.90;99.90
17381;DHT22;8808;52.478;13.378;2023-07-13T04:45:47;19.90;99.90
17381;DHT22;8808;52.478;13.378;2023-07-13T04:48:14;20.00;99.90
17381;DHT22;8808;52.478;13.378;2023-07-13T04:50:41;20.00;99.90
17381;DHT22;8808;52.478;13.378;2023-07-13T04:53:09;20.10;99.90
17381;DHT22;8808;52.478;13.378;2023-07-13T04:55:36;20.20;99.90
17381;DHT22;8808;52.478;13.378;2023-07-13T04:58:03;20.20;99.90
17381;DHT22;8808;52.478;13.378;2023-07-13T05:00:31;20.20;99.90
17381;DHT22;8808;52.478;13.378;2023-07-13T05:03:00;20.30;99.90
17381;DHT22;8808;52.478;13.378;2023-07-13T05:05:27;20.30;99.90
17381;DHT22;8808;52.478;13.378;2023-07-13T05:07:54;20.30;99.90
17381;DHT22;8808;52.478;13.378;2023-07-13T05:10:22;20.30;99.90
17381;DHT22;8808;52.478;13.378;2023-07-13T05:12:49;20.40;99.90
17381;DHT22;8808;52.478;13.378;2023-07-13T05:15:16;20.50;99.90
17381;DHT22;8808;52.478;13.378;2023-07-13T05:17:46;20.50;99.90
17381;DHT22;8808;52.478;13.378;2023-07-13T05:20:15;20.50;99.90
17381;DHT22;8808;52.478;13.378;2023-07-13T05:22:42;20.60;99.90
17381;DHT22;8808;52.478;13.378;2023-07-13T05:25:10;20.60;99.90
17381;DHT22;8808;52.478;13.378;2023-07-13T05:27:37;20.70;99.90
17381;DHT22;8808;52.478;13.378;2023-07-13T05:30:06;20.80;99.90
17381;DHT22;8808;52.478;13.378;2023-07-13T05:32:36;20.90;99.90
17381;DHT22;8808;52.478;13.378;2023-07-13T05:35:03;20.90;99.90
17381;DHT22;8808;52.478;13.378;2023-07-13T05:37:32;21.00;99.90
17381;DHT22;8808;52.478;13.378;2023-07-13T05:39:59;21.10;99.90
17381;DHT22;8808;52.478;13.378;2023-07-13T05:42:26;21.30;99.90
17381;DHT22;8808;52.478;13.378;2023-07-13T05:44:53;21.30;99.90
17381;DHT22;8808;52.478;13.378;2023-07-13T05:47:21;21.40;99.90
17381;DHT22;8808;52.478;13.378;2023-07-13T05:49:48;21.70;99.90
17381;DHT22;8808;52.478;13.378;2023-07-13T05:52:15;21.80;99.90
17381;DHT22;8808;52.478;13.378;2023-07-13T05:54:43;21.90;99.90
17381;DHT22;8808;52.478;13.378;2023-07-13T05:57:10;21.70;99.90
17381;DHT22;8808;52.478;13.378;2023-07-13T05:59:37;22.00;99.90
17381;DHT22;8808;52.478;13.378;2023-07-13T06:02:04;22.00;99.90
17381;DHT22;8808;52.478;13.378;2023-07-13T06:04:32;21.90;99.90
17381;DHT22;8808;52.478;13.378;2023-07-13T06:06:59;21.90;99.90
17381;DHT22;8808;52.478;13.378;2023-07-13T06:09:25;22.10;99.90
17381;DHT22;8808;52.478;13.378;2023-07-13T06:11:54;21.80;99.90
17381;DHT22;8808;52.478;13.378;2023-07-13T06:14:21;21.80;99.90
17381;DHT22;8808;52.478;13.378;2023-07-13T06:16:48;22.00;99.90
17381;DHT22;8808;52.478;13.378;2023-07-13T06:19:15;21.90;99.90
17381;DHT22;8808;52.478;13.378;2023-07-13T06:21:42;22.10;99.90
17381;DHT22;8808;52.478;13.378;2023-07-13T06:24:09;22.60;99.90
17381;DHT22;8808;52.478;13.378;2023-07-13T06:26:37;23.20;99.90
17381;DHT22;8808;52.478;13.378;2023-07-13T06:29:05;23.00;99.90
17381;DHT22;8808;52.478;13.378;2023-07-13T06:31:32;22.90;99.90
17381;DHT22;8808;52.478;13.378;2023-07-13T06:33:59;22.60;99.90
17381;DHT22;8808;52.478;13.378;2023-07-13T06:36:26;22.40;99.90
17381;DHT22;8808;52.478;13.378;2023-07-13T06:38:54;22.30;99.90
17381;DHT22;8808;52.478;13.378;2023-07-13T06:41:20;22.60;99.90
17381;DHT22;8808;52.478;13.378;2023-07-13T06:43:48;23.40;99.90
17381;DHT22;8808;52.478;13.378;2023-07-13T06:46:16;23.60;99.90
17381;DHT22;8808;52.478;13.378;2023-07-13T06:48:43;23.50;99.90
17381;DHT22;8808;52.478;13.378;2023-07-13T06:51:10;23.30;99.90
17381;DHT22;8808;52.478;13.378;2023-07-13T06:53:37;23.50;99.90
17381;DHT22;8808;52.478;13.378;2023-07-13T06:56:04;23.60;99.90
17381;DHT22;8808;52.478;13.378;2023-07-13T06:58:34;23.70;99.90
17381;DHT22;8808;52.478;13.378;2023-07-13T07:01:01;23.50;99.90
17381;DHT22;8808;52.478;13.378;2023-07-13T07:03:30;23.50;99.90
17381;DHT22;8808;52.478;13.378;2023-07-13T07:06:00;23.90;99.90
17381;DHT22;8808;52.478;13.378;2023-07-13T07:08:27;23.60;99.90
17381;DHT22;8808;52.478;13.378;2023-07-13T07:10:54;23.90;99.90
17381;DHT22;8808;52.478;13.378;2023-07-13T07:13:21;23.40;99.90
17381;DHT22;8808;52.478;13.378;2023-07-13T07:15:50;23.10;99.90
17381;DHT22;8808;52.478;13.378;2023-07-13T07:18:16;23.10;99.90
17381;DHT22;8808;52.478;13.378;2023-07-13T07:20:45;23.30;99.90
17381;DHT22;8808;52.478;13.378;2023-07-13T07:23:12;23.10;99.90
17381;DHT22;8808;52.478;13.378;2023-07-13T07:25:40;23.30;99.90
17381;DHT22;8808;52.478;13.378;2023-07-13T07:28:07;23.30;99.90
17381;DHT22;8808;52.478;13.378;2023-07-13T07:30:34;23.60;99.90
17381;DHT22;8808;52.478;13.378;2023-07-13T07:33:01;24.30;99.90
17381;DHT22;8808;52.478;13.378;2023-07-13T07:35:28;23.90;99.90
17381;DHT22;8808;52.478;13.378;2023-07-13T07:37:57;23.70;99.90
17381;DHT22;8808;52.478;13.378;2023-07-13T07:40:24;23.90;99.90
17381;DHT22;8808;52.478;13.378;2023-07-13T07:42:50;24.10;99.90
17381;DHT22;8808;52.478;13.378;2023-07-13T07:45:17;23.90;99.90
17381;DHT22;8808;52.478;13.378;2023-07-13T07:47:45;24.20;99.90
17381;DHT22;8808;52.478;13.378;2023-07-13T07:50:12;24.00;99.90
17381;DHT22;8808;52.478;13.378;2023-07-13T07:52:39;24.20;99.90
17381;DHT22;8808;52.478;13.378;2023-07-13T07:55:08;24.40;99.90
17381;DHT22;8808;52.478;13.378;2023-07-13T07:57:35;24.30;99.90
17381;DHT22;8808;52.478;13.378;2023-07-13T08:00:02;24.10;99.90
17381;DHT22;8808;52.478;13.378;2023-07-13T08:02:29;24.20;99.90
17381;DHT22;8808;52.478;13.378;2023-07-13T08:04:56;23.90;99.90
17381;DHT22;8808;52.478;13.378;2023-07-13T08:07:23;24.00;99.90
17381;DHT22;8808;52.478;13.378;2023-07-13T08:09:52;23.70;99.90
17381;DHT22;8808;52.478;13.378;2023-07-13T08:12:20;23.50;99.90
17381;DHT22;8808;52.478;13.378;2023-07-13T08:14:50;23.50;99.90
17381;DHT22;8808;52.478;13.378;2023-07-13T08:17:19;23.50;99.90
17381;DHT22;8808;52.478;13.378;2023-07-13T08:19:46;23.90;99.90
17381;DHT22;8808;52.478;13.378;2023-07-13T08:22:13;23.80;99.90
17381;DHT22;8808;52.478;13.378;2023-07-13T08:24:40;24.00;99.90
17381;DHT22;8808;52.478;13.378;2023-07-13T08:27:08;23.80;99.90
17381;DHT22;8808;52.478;13.378;2023-07-13T08:29:38;23.70;99.90
17381;DHT22;8808;52.478;13.378;2023-07-13T08:32:07;23.60;99.90
17381;DHT22;8808;52.478;13.378;2023-07-13T08:34:36;23.70;99.90
17381;DHT22;8808;52.478;13.378;2023-07-13T08:37:03;23.50;99.90
17381;DHT22;8808;52.478;13.378;2023-07-13T08:39:30;23.50;99.90
17381;DHT22;8808;52.478;13.378;2023-07-13T08:42:00;23.80;99.90
17381;DHT22;8808;52.478;13.378;2023-07-13T08:44:36;23.60;99.90
17381;DHT22;8808;52.478;13.378;2023-07-13T08:47:07;23.70;99.90
17381;DHT22;8808;52.478;13.378;2023-07-13T08:49:35;23.60;99.90
17381;DHT22;8808;52.478;13.378;2023-07-13T08:52:08;23.60;99.90
17381;DHT22;8808;52.478;13.378;2023-07-13T08:54:40;23.60;99.90
17381;DHT22;8808;52.478;13.378;2023-07-13T08:57:13;23.70;99.90
17381;DHT22;8808;52.478;13.378;2023-07-13T08:59:40;23.50;99.90
17381;DHT22;8808;52.478;13.378;2023-07-13T09:02:20;23.80;99.90
17381;DHT22;8808;52.478;13.378;2023-07-13T09:04:52;24.60;99.90
17381;DHT22;8808;52.478;13.378;2023-07-13T09:07:29;25.00;99.10
17381;DHT22;8808;52.478;13.378;2023-07-13T09:10:08;25.20;97.80
17381;DHT22;8808;52.478;13.378;2023-07-13T09:12:46;25.30;97.40
17381;DHT22;8808;52.478;13.378;2023-07-13T09:15:26;25.00;97.80
17381;DHT22;8808;52.478;13.378;2023-07-13T09:18:01;25.30;97.40
17381;DHT22;8808;52.478;13.378;2023-07-13T09:20:33;25.70;98.10
17381;DHT22;8808;52.478;13.378;2023-07-13T09:23:04;26.00;95.50
17381;DHT22;8808;52.478;13.378;2023-07-13T09:25:34;26.00;93.30
17381;DHT22;8808;52.478;13.378;2023-07-13T09:28:12;26.30;93.90
17381;DHT22;8808;52.478;13.378;2023-07-13T09:30:49;26.20;96.20
17381;DHT22;8808;52.478;13.378;2023-07-13T09:33:20;26.20;93.80
17381;DHT22;8808;52.478;13.378;2023-07-13T09:35:47;26.20;92.20
17381;DHT22;8808;52.478;13.378;2023-07-13T09:38:15;26.20;92.40
17381;DHT22;8808;52.478;13.378;2023-07-13T09:40:51;25.60;88.70
17381;DHT22;8808;52.478;13.378;2023-07-13T09:43:20;25.30;91.70
17381;DHT22;8808;52.478;13.378;2023-07-13T09:45:48;25.20;91.10
17381;DHT22;8808;52.478;13.378;2023-07-13T09:48:16;25.50;93.60
17381;DHT22;8808;52.478;13.378;2023-07-13T09:50:45;25.80;94.50
17381;DHT22;8808;52.478;13.378;2023-07-13T09:53:13;25.90;95.40
17381;DHT22;8808;52.478;13.378;2023-07-13T09:55:42;25.80;86.90
17381;DHT22;8808;52.478;13.378;2023-07-13T09:58:12;25.90;95.00
17381;DHT22;8808;52.478;13.378;2023-07-13T10:00:40;25.80;87.50
17381;DHT22;8808;52.478;13.378;2023-07-13T10:03:19;25.60;88.30
17381;DHT22;8808;52.478;13.378;2023-07-13T10:05:51;25.40;89.00
17381;DHT22;8808;52.478;13.378;2023-07-13T10:08:23;25.20;88.10
17381;DHT22;8808;52.478;13.378;2023-07-13T10:10:57;25.00;90.60
17381;DHT22;8808;52.478;13.378;2023-07-13T10:13:27;25.30;91.10
17381;DHT22;8808;52.478;13.378;2023-07-13T10:15:56;25.70;95.20
17381;DHT22;8808;52.478;13.378;2023-07-13T10:18:24;25.60;93.10
17381;DHT22;8808;52.478;13.378;2023-07-13T10:21:00;25.60;91.10
17381;DHT22;8808;52.478;13.378;2023-07-13T10:23:35;25.70;92.10
17381;DHT22;8808;52.478;13.378;2023-07-13T10:26:03;26.00;93.90
17381;DHT22;8808;52.478;13.378;2023-07-13T10:28:34;25.70;91.00
17381;DHT22;8808;52.478;13.378;2023-07-13T10:31:06;25.50;88.90
17381;DHT22;8808;52.478;13.378;2023-07-13T10:33:37;25.30;90.90
17381;DHT22;8808;52.478;13.378;2023-07-13T10:36:13;25.60;92.00
17381;DHT22;8808;52.478;13.378;2023-07-13T10:38:41;25.70;94.90
17381;DHT22;8808;52.478;13.378;2023-07-13T10:41:12;25.60;90.70
17381;DHT22;8808;52.478;13.378;2023-07-13T10:43:43;25.40;92.50
17381;DHT22;8808;52.478;13.378;2023-07-13T10:46:14;25.30;93.60
17381;DHT22;8808;52.478;13.378;2023-07-13T10:48:43;25.30;90.10
17381;DHT22;8808;52.478;13.378;2023-07-13T10:51:14;25.70;92.30
17381;DHT22;8808;52.478;13.378;2023-07-13T10:53:42;25.70;86.20
17381;DHT22;8808;52.478;13.378;2023-07-13T10:56:22;25.90;94.00
17381;DHT22;8808;52.478;13.378;2023-07-13T10:59:02;25.90;91.80
17381;DHT22;8808;52.478;13.378;2023-07-13T11:01:40;26.10;89.30
17381;DHT22;8808;52.478;13.378;2023-07-13T11:04:12;26.20;93.10
17381;DHT22;8808;52.478;13.378;2023-07-13T11:06:42;26.00;92.00
17381;DHT22;8808;52.478;13.378;2023-07-13T11:09:34;25.80;84.10
17381;DHT22;8808;52.478;13.378;2023-07-13T11:12:07;26.00;87.60
17381;DHT22;8808;52.478;13.378;2023-07-13T11:14:36;26.40;90.80
17381;DHT22;8808;52.478;13.378;2023-07-13T11:17:46;26.30;79.50
17381;DHT22;8808;52.478;13.378;2023-07-13T11:20:32;26.30;78.70
17381;DHT22;8808;52.478;13.378;2023-07-13T11:23:28;26.30;85.40
17381;DHT22;8808;52.478;13.378;2023-07-13T11:25:55;26.60;90.40
17381;DHT22;8808;52.478;13.378;2023-07-13T11:28:25;26.30;86.40
17381;DHT22;8808;52.478;13.378;2023-07-13T11:31:14;26.60;91.40
17381;DHT22;8808;52.478;13.378;2023-07-13T11:33:56;26.90;86.80
17381;DHT22;8808;52.478;13.378;2023-07-13T11:36:35;26.80;90.40
17381;DHT22;8808;52.478;13.378;2023-07-13T11:39:15;26.90;85.30
17381;DHT22;8808;52.478;13.378;2023-07-13T11:41:44;26.60;82.50
17381;DHT22;8808;52.478;13.378;2023-07-13T11:44:14;26.50;82.80
17381;DHT22;8808;52.478;13.378;2023-07-13T11:46:45;26.70;83.90
17381;DHT22;8808;52.478;13.378;2023-07-13T11:49:16;26.80;85.00
17381;DHT22;8808;52.478;13.378;2023-07-13T11:51:44;26.70;90.50
17381;DHT22;8808;52.478;13.378;2023-07-13T11:54:23;26.40;90.50
17381;DHT22;8808;52.478;13.378;2023-07-13T11:56:50;26.40;83.60
17381;DHT22;8808;52.478;13.378;2023-07-13T11:59:18;26.70;79.10
17381;DHT22;8808;52.478;13.378;2023-07-13T12:01:50;26.50;85.40
17381;DHT22;8808;52.478;13.378;2023-07-13T12:04:22;26.90;83.00
17381;DHT22;8808;52.478;13.378;2023-07-13T12:06:55;26.60;89.40
17381;DHT22;8808;52.478;13.378;2023-07-13T12:09:27;26.80;88.40
17381;DHT22;8808;52.478;13.378;2023-07-13T12:11:57;27.00;80.80
17381;DHT22;8808;52.478;13.378;2023-07-13T12:14:25;27.10;82.80
17381;DHT22;8808;52.478;13.378;2023-07-13T12:16:53;26.80;83.00
17381;DHT22;8808;52.478;13.378;2023-07-13T12:19:22;27.20;81.30
17381;DHT22;8808;52.478;13.378;2023-07-13T12:21:50;27.20;83.40
17381;DHT22;8808;52.478;13.378;2023-07-13T12:24:20;27.10;81.90
17381;DHT22;8808;52.478;13.378;2023-07-13T12:26:53;27.10;77.90
17381;DHT22;8808;52.478;13.378;2023-07-13T12:29:21;26.70;83.60
17381;DHT22;8808;52.478;13.378;2023-07-13T12:31:49;26.80;89.90
17381;DHT22;8808;52.478;13.378;2023-07-13T12:34:19;26.90;83.10
17381;DHT22;8808;52.478;13.378;2023-07-13T12:36:48;27.10;85.50
17381;DHT22;8808;52.478;13.378;2023-07-13T12:39:18;26.50;87.30
17381;DHT22;8808;52.478;13.378;2023-07-13T12:41:47;26.60;77.70
17381;DHT22;8808;52.478;13.378;2023-07-13T12:44:17;26.90;83.70
17381;DHT22;8808;52.478;13.378;2023-07-13T12:46:53;26.90;81.50
17381;DHT22;8808;52.478;13.378;2023-07-13T12:49:25;27.30;86.70
17381;DHT22;8808;52.478;13.378;2023-07-13T12:51:56;27.20;83.40
17381;DHT22;8808;52.478;13.378;2023-07-13T12:54:26;27.50;85.90
17381;DHT22;8808;52.478;13.378;2023-07-13T12:56:54;27.10;90.00
17381;DHT22;8808;52.478;13.378;2023-07-13T12:59:29;27.40;84.40
17381;DHT22;8808;52.478;13.378;2023-07-13T13:01:59;27.60;81.90
17381;DHT22;8808;52.478;13.378;2023-07-13T13:04:27;27.50;87.50
17381;DHT22;8808;52.478;13.378;2023-07-13T13:07:02;27.60;74.40
17381;DHT22;8808;52.478;13.378;2023-07-13T13:09:29;27.20;78.80
17381;DHT22;8808;52.478;13.378;2023-07-13T13:11:56;27.50;72.10
17381;DHT22;8808;52.478;13.378;2023-07-13T13:14:25;27.40;80.90
17381;DHT22;8808;52.478;13.378;2023-07-13T13:16:52;27.00;83.00
17381;DHT22;8808;52.478;13.378;2023-07-13T13:19:22;27.00;83.60
17381;DHT22;8808;52.478;13.378;2023-07-13T13:21:52;27.00;85.90
17381;DHT22;8808;52.478;13.378;2023-07-13T13:24:22;26.80;89.20
17381;DHT22;8808;52.478;13.378;2023-07-13T13:26:50;26.90;83.20
17381;DHT22;8808;52.478;13.378;2023-07-13T13:29:19;26.50;75.70
17381;DHT22;8808;52.478;13.378;2023-07-13T13:31:48;26.50;88.00
17381;DHT22;8808;52.478;13.378;2023-07-13T13:34:17;26.70;75.80
17381;DHT22;8808;52.478;13.378;2023-07-13T13:36:45;26.80;84.50
17381;DHT22;8808;52.478;13.378;2023-07-13T13:39:20;26.50;83.90
17381;DHT22;8808;52.478;13.378;2023-07-13T13:41:48;26.50;87.40
17381;DHT22;8808;52.478;13.378;2023-07-13T13:44:16;26.70;80.20
17381;DHT22;8808;52.478;13.378;2023-07-13T13:46:47;26.40;84.80
17381;DHT22;8808;52.478;13.378;2023-07-13T13:49:15;26.40;89.10
17381;DHT22;8808;52.478;13.378;2023-07-13T13:51:44;26.40;88.60
17381;DHT22;8808;52.478;13.378;2023-07-13T13:54:12;26.30;77.50
17381;DHT22;8808;52.478;13.378;2023-07-13T13:56:42;26.10;83.10
17381;DHT22;8808;52.478;13.378;2023-07-13T13:59:09;26.20;83.70
17381;DHT22;8808;52.478;13.378;2023-07-13T14:01:36;26.00;89.70
17381;DHT22;8808;52.478;13.378;2023-07-13T14:04:06;26.10;85.20
17381;DHT22;8808;52.478;13.378;2023-07-13T14:06:34;26.00;90.10
17381;DHT22;8808;52.478;13.378;2023-07-13T14:09:01;26.00;76.50
17381;DHT22;8808;52.478;13.378;2023-07-13T14:11:31;26.20;85.50
17381;DHT22;8808;52.478;13.378;2023-07-13T14:13:59;26.20;85.90
17381;DHT22;8808;52.478;13.378;2023-07-13T14:16:30;26.10;76.00
17381;DHT22;8808;52.478;13.378;2023-07-13T14:18:58;26.10;86.40
17381;DHT22;8808;52.478;13.378;2023-07-13T14:21:29;26.10;85.00
17381;DHT22;8808;52.478;13.378;2023-07-13T14:23:56;26.10;84.20
17381;DHT22;8808;52.478;13.378;2023-07-13T14:26:25;26.00;77.50
17381;DHT22;8808;52.478;13.378;2023-07-13T14:28:54;26.10;82.30
17381;DHT22;8808;52.478;13.378;2023-07-13T14:31:23;26.00;85.10
17381;DHT22;8808;52.478;13.378;2023-07-13T14:33:50;26.00;85.20
17381;DHT22;8808;52.478;13.378;2023-07-13T14:36:29;26.00;84.10
17381;DHT22;8808;52.478;13.378;2023-07-13T14:38:58;25.90;78.80
17381;DHT22;8808;52.478;13.378;2023-07-13T14:41:26;25.90;82.10
17381;DHT22;8808;52.478;13.378;2023-07-13T14:43:53;26.00;85.00
17381;DHT22;8808;52.478;13.378;2023-07-13T14:46:29;26.10;84.40
17381;DHT22;8808;52.478;13.378;2023-07-13T14:49:01;26.10;86.30
17381;DHT22;8808;52.478;13.378;2023-07-13T14:51:31;26.00;87.20
17381;DHT22;8808;52.478;13.378;2023-07-13T14:54:03;26.10;83.00
17381;DHT22;8808;52.478;13.378;2023-07-13T14:56:30;26.00;86.90
17381;DHT22;8808;52.478;13.378;2023-07-13T14:58:57;26.00;76.70
17381;DHT22;8808;52.478;13.378;2023-07-13T15:01:25;25.90;82.80
17381;DHT22;8808;52.478;13.378;2023-07-13T15:03:52;25.90;84.80
17381;DHT22;8808;52.478;13.378;2023-07-13T15:06:20;26.00;86.90
17381;DHT22;8808;52.478;13.378;2023-07-13T15:08:48;25.90;75.60
17381;DHT22;8808;52.478;13.378;2023-07-13T15:11:16;25.90;80.70
17381;DHT22;8808;52.478;13.378;2023-07-13T15:13:43;25.80;74.80
17381;DHT22;8808;52.478;13.378;2023-07-13T15:16:16;25.80;90.30
17381;DHT22;8808;52.478;13.378;2023-07-13T15:18:45;25.70;90.30
17381;DHT22;8808;52.478;13.378;2023-07-13T15:21:23;25.80;90.60
17381;DHT22;8808;52.478;13.378;2023-07-13T15:23:54;25.80;87.50
17381;DHT22;8808;52.478;13.378;2023-07-13T15:26:22;25.80;84.30
17381;DHT22;8808;52.478;13.378;2023-07-13T15:28:48;25.70;79.80
17381;DHT22;8808;52.478;13.378;2023-07-13T15:31:19;25.70;82.10
17381;DHT22;8808;52.478;13.378;2023-07-13T15:33:48;25.70;87.80
17381;DHT22;8808;52.478;13.378;2023-07-13T15:36:16;25.70;90.40
17381;DHT22;8808;52.478;13.378;2023-07-13T15:38:43;25.70;82.90
17381;DHT22;8808;52.478;13.378;2023-07-13T15:41:19;25.60;76.10
17381;DHT22;8808;52.478;13.378;2023-07-13T15:43:48;25.70;90.50
17381;DHT22;8808;52.478;13.378;2023-07-13T15:46:16;25.70;82.60